createdAt,value
2018-01-12T00:01:03.879Z,6.39
2018-01-12T00:03:31.491Z,6.37
2018-01-12T00:05:59.076Z,6.38
2018-01-12T00:08:26.676Z,6.36
2018-01-12T00:10:54.245Z,6.37
2018-01-12T00:13:21.809Z,6.28
2018-01-12T00:15:49.526Z,6.33
2018-01-12T00:18:17.106Z,6.35
2018-01-12T00:20:44.667Z,6.33
2018-01-12T00:23:12.284Z,6.32
2018-01-12T00:25:39.852Z,6.34
2018-01-12T00:28:07.436Z,6.35
2018-01-12T00:30:35.058Z,6.38
2018-01-12T00:33:02.681Z,6.39
2018-01-12T00:35:30.231Z,6.31
2018-01-12T00:37:57.878Z,6.38
2018-01-12T00:40:25.480Z,6.42
2018-01-12T00:42:53.079Z,6.45
2018-01-12T00:45:20.744Z,6.45
2018-01-12T00:47:48.355Z,6.46
2018-01-12T00:50:15.982Z,6.46
2018-01-12T00:52:43.626Z,6.41
2018-01-12T00:55:11.223Z,6.40
2018-01-12T00:57:38.877Z,6.38
2018-01-12T01:00:06.552Z,6.35
2018-01-12T01:02:34.115Z,6.26
2018-01-12T01:05:01.702Z,6.22
2018-01-12T01:07:29.314Z,6.28
2018-01-12T01:09:56.906Z,6.24
2018-01-12T01:12:24.476Z,6.22
2018-01-12T01:14:52.080Z,6.20
2018-01-12T01:17:19.685Z,6.24
2018-01-12T01:19:47.274Z,6.20
2018-01-12T01:22:14.878Z,6.15
2018-01-12T01:24:42.458Z,6.04
2018-01-12T01:27:10.035Z,6.07
2018-01-12T01:29:37.648Z,6.08
2018-01-12T01:32:05.273Z,6.15
2018-01-12T01:34:32.857Z,6.18
2018-01-12T01:37:00.475Z,6.20
2018-01-12T01:39:28.042Z,6.24
2018-01-12T01:41:55.611Z,6.27
2018-01-12T01:44:23.224Z,6.26
2018-01-12T01:46:50.796Z,6.26
2018-01-12T01:49:18.377Z,6.30
2018-01-12T01:51:45.994Z,6.35
2018-01-12T01:54:13.576Z,6.35
2018-01-12T01:56:41.138Z,6.38
2018-01-12T01:59:08.760Z,6.37
2018-01-12T02:01:36.536Z,6.33
2018-01-12T02:04:04.108Z,6.37
2018-01-12T02:06:32.074Z,6.38
2018-01-12T02:08:59.654Z,6.41
2018-01-12T02:11:27.234Z,6.46
2018-01-12T02:13:54.845Z,6.44
2018-01-12T02:16:22.452Z,6.36
2018-01-12T02:18:50.019Z,6.38
2018-01-12T02:21:17.645Z,6.40
2018-01-12T02:23:45.215Z,6.41
2018-01-12T02:26:12.795Z,6.39
2018-01-12T02:28:40.412Z,6.34
2018-01-12T02:31:07.973Z,6.33
2018-01-12T02:33:35.556Z,6.35
2018-01-12T02:36:03.325Z,6.39
2018-01-12T02:38:30.905Z,6.28
2018-01-12T02:40:58.520Z,6.32
2018-01-12T02:43:26.127Z,6.32
2018-01-12T02:45:53.699Z,6.31
2018-01-12T02:48:21.299Z,6.30
2018-01-12T02:50:48.923Z,6.24
2018-01-12T02:53:16.509Z,6.21
2018-01-12T02:55:44.290Z,6.21
2018-01-12T02:58:11.912Z,6.18
2018-01-12T03:00:39.493Z,6.15
2018-01-12T03:03:07.171Z,6.07
2018-01-12T03:05:35.408Z,6.07
2018-01-12T03:08:02.992Z,6.09
2018-01-12T03:10:30.572Z,6.18
2018-01-12T03:12:58.183Z,6.23
2018-01-12T03:15:25.756Z,6.28
2018-01-12T03:17:53.320Z,6.29
2018-01-12T03:20:20.934Z,6.33
2018-01-12T03:22:48.506Z,6.36
2018-01-12T03:25:16.082Z,6.36
2018-01-12T03:27:43.676Z,6.36
2018-01-12T03:30:11.243Z,6.28
2018-01-12T03:32:38.832Z,6.30
2018-01-12T03:35:06.484Z,6.33
2018-01-12T03:37:34.069Z,6.36
2018-01-12T03:40:01.648Z,6.41
2018-01-12T03:42:29.577Z,6.40
2018-01-12T03:44:57.146Z,6.40
2018-01-12T03:47:24.793Z,6.36
2018-01-12T03:49:52.416Z,6.33
2018-01-12T03:52:20.003Z,6.36
2018-01-12T03:54:47.599Z,6.35
2018-01-12T03:57:15.310Z,6.36
2018-01-12T03:59:42.875Z,6.34
2018-01-12T04:02:10.556Z,6.35
2018-01-12T04:04:38.220Z,6.38
2018-01-12T04:07:05.777Z,6.38
2018-01-12T04:09:33.386Z,6.34
2018-01-12T04:12:00.991Z,6.26
2018-01-12T04:14:28.576Z,6.25
2018-01-12T04:16:56.151Z,6.18
2018-01-12T04:19:23.982Z,6.17
2018-01-12T04:21:51.541Z,6.19
2018-01-12T04:24:19.115Z,6.13
2018-01-12T04:26:46.725Z,6.09
2018-01-12T04:29:14.388Z,6.12
2018-01-12T04:31:42.002Z,6.15
2018-01-12T04:34:09.613Z,6.09
2018-01-12T04:36:37.194Z,6.11
2018-01-12T04:39:04.857Z,6.05
2018-01-12T04:41:32.466Z,6.02
2018-01-12T04:44:00.045Z,6.08
2018-01-12T04:46:27.636Z,6.06
2018-01-12T04:48:55.242Z,6.09
2018-01-12T04:51:22.886Z,6.12
2018-01-12T04:53:50.459Z,6.12
2018-01-12T04:56:18.071Z,6.02
2018-01-12T04:58:45.655Z,6.06
2018-01-12T05:01:13.237Z,6.07
2018-01-12T05:03:40.854Z,6.10
2018-01-12T05:06:10.000Z,6.11
2018-01-12T05:08:40.073Z,6.19
2018-01-12T05:11:09.283Z,6.19
2018-01-12T05:13:38.402Z,6.19
2018-01-12T05:16:07.608Z,6.13
2018-01-12T05:18:37.571Z,6.18
2018-01-12T05:21:07.244Z,6.16
2018-01-12T05:23:36.674Z,6.13
2018-01-12T05:26:04.350Z,6.13
2018-01-12T05:28:31.924Z,6.15
2018-01-12T05:30:59.536Z,6.16
2018-01-12T05:33:27.126Z,6.17
2018-01-12T05:35:54.710Z,6.16
2018-01-12T05:38:22.337Z,6.23
2018-01-12T05:40:49.917Z,6.21
2018-01-12T05:43:17.491Z,6.21
2018-01-12T05:45:45.091Z,6.21
2018-01-12T05:48:12.680Z,6.20
2018-01-12T05:50:40.272Z,6.22
2018-01-12T05:53:07.879Z,6.23
2018-01-12T05:55:35.466Z,6.23
2018-01-12T05:58:03.058Z,6.12
2018-01-12T06:00:30.669Z,6.09
2018-01-12T06:03:10.025Z,6.06
2018-01-12T06:05:49.255Z,6.07
2018-01-12T06:08:16.816Z,6.10
2018-01-12T06:10:44.380Z,6.16
2018-01-12T06:13:11.984Z,6.19
2018-01-12T06:15:39.556Z,6.21
2018-01-12T06:18:07.131Z,6.24
2018-01-12T06:20:34.740Z,6.23
2018-01-12T06:23:02.326Z,6.30
2018-01-12T06:25:29.892Z,6.35
2018-01-12T06:27:57.494Z,6.38
2018-01-12T06:30:25.063Z,6.39
2018-01-12T06:32:52.650Z,6.41
2018-01-12T06:35:20.267Z,6.40
2018-01-12T06:37:47.852Z,6.43
2018-01-12T06:40:15.436Z,6.45
2018-01-12T06:42:43.058Z,6.46
2018-01-12T06:45:10.640Z,6.50
2018-01-12T06:47:38.217Z,6.52
2018-01-12T06:50:05.907Z,6.57
2018-01-12T06:52:33.476Z,6.55
2018-01-12T06:55:01.051Z,6.57
2018-01-12T06:57:28.672Z,6.63
2018-01-12T06:59:56.249Z,6.62
2018-01-12T07:02:23.806Z,6.62
2018-01-12T07:04:51.498Z,6.57
2018-01-12T07:07:19.072Z,6.58
2018-01-12T07:09:46.654Z,6.57
2018-01-12T07:12:14.320Z,6.58
2018-01-12T07:14:41.949Z,6.58
2018-01-12T07:17:09.530Z,6.66
2018-01-12T07:19:37.153Z,6.75
2018-01-12T07:22:16.461Z,6.78
2018-01-12T07:24:44.080Z,6.75
2018-01-12T07:27:11.744Z,6.77
2018-01-12T07:29:39.502Z,6.76
2018-01-12T07:32:07.119Z,6.70
2018-01-12T07:34:34.733Z,6.68
2018-01-12T07:37:02.315Z,6.75
2018-01-12T07:39:29.919Z,6.75
2018-01-12T07:41:57.509Z,6.88
2018-01-12T07:44:25.118Z,7.03
2018-01-12T07:46:52.745Z,7.20
2018-01-12T07:49:20.320Z,7.35
2018-01-12T07:51:47.916Z,7.39
2018-01-12T07:54:15.523Z,7.33
2018-01-12T07:56:43.137Z,7.40
2018-01-12T07:59:10.886Z,7.36
2018-01-12T08:01:44.065Z,7.34
2018-01-12T08:04:11.657Z,7.26
2018-01-12T08:06:39.251Z,7.18
2018-01-12T08:09:06.881Z,7.18
2018-01-12T08:11:34.455Z,7.23
2018-01-12T08:14:02.094Z,7.22
2018-01-12T08:16:29.805Z,7.17
2018-01-12T08:18:57.460Z,7.23
2018-01-12T08:21:25.049Z,7.28
2018-01-12T08:23:52.648Z,7.37
2018-01-12T08:26:20.263Z,7.45
2018-01-12T08:28:47.842Z,7.47
2018-01-12T08:31:15.422Z,7.53
2018-01-12T08:33:43.060Z,7.52
2018-01-12T08:36:10.645Z,7.47
2018-01-12T08:38:38.220Z,7.38
2018-01-12T08:41:05.844Z,7.26
2018-01-12T08:43:33.441Z,7.19
2018-01-12T08:46:01.021Z,7.15
2018-01-12T08:48:29.580Z,7.13
2018-01-12T08:50:57.169Z,7.30
2018-01-12T08:53:24.759Z,7.28
2018-01-12T08:55:52.375Z,7.33
2018-01-12T08:58:19.943Z,7.28
2018-01-12T09:00:47.569Z,7.24
2018-01-12T09:03:15.179Z,7.22
2018-01-12T09:05:42.761Z,7.22
2018-01-12T09:08:10.358Z,7.24
2018-01-12T09:10:37.983Z,7.28
2018-01-12T09:13:05.648Z,7.27
2018-01-12T09:15:33.241Z,7.24
2018-01-12T09:18:00.854Z,7.24
2018-01-12T09:20:34.423Z,7.22
2018-01-12T09:26:03.939Z,7.28
2018-01-12T09:28:31.549Z,7.35
2018-01-12T09:30:59.202Z,7.49
2018-01-12T09:33:26.787Z,7.59
2018-01-12T09:35:54.427Z,7.48
2018-01-12T09:38:23.034Z,7.39
2018-01-12T09:40:51.492Z,7.48
2018-01-12T09:43:19.966Z,7.54
2018-01-12T09:48:40.806Z,7.73
2018-01-12T09:51:08.378Z,7.81
2018-01-12T09:53:35.958Z,7.91
2018-01-12T09:56:03.826Z,7.97
2018-01-12T09:58:31.427Z,7.99
2018-01-12T10:01:03.109Z,7.98
2018-01-12T10:03:30.806Z,7.97
2018-01-12T10:05:58.389Z,7.94
2018-01-12T10:08:27.157Z,7.91
2018-01-12T10:10:54.816Z,7.82
2018-01-12T10:13:22.678Z,7.83
2018-01-12T10:15:50.287Z,7.87
2018-01-12T10:18:29.726Z,7.87
2018-01-12T10:23:50.435Z,7.82
2018-01-12T10:26:18.119Z,7.84
2018-01-12T10:28:57.481Z,7.83
2018-01-12T10:31:33.260Z,7.93
2018-01-12T10:34:07.938Z,7.95
2018-01-12T10:36:40.137Z,8.01
2018-01-12T10:48:47.197Z,7.94
2018-01-12T10:51:26.706Z,8.00
2018-01-12T10:53:54.330Z,7.98
2018-01-12T10:56:21.981Z,7.98
2018-01-12T10:58:49.561Z,7.90
2018-01-12T11:01:17.259Z,7.82
2018-01-12T11:03:44.864Z,7.86
2018-01-12T11:06:12.426Z,7.85
2018-01-12T11:08:40.037Z,7.84
2018-01-12T11:11:07.608Z,7.79
2018-01-12T11:13:35.190Z,7.69
2018-01-12T11:16:02.817Z,7.74
2018-01-12T11:18:30.379Z,7.71
2018-01-12T11:20:57.958Z,7.69
2018-01-12T11:23:25.575Z,7.53
2018-01-12T11:25:53.155Z,7.50
2018-01-12T11:28:20.726Z,7.47
2018-01-12T11:30:48.324Z,7.45
2018-01-12T11:33:15.918Z,7.44
2018-01-12T11:35:43.567Z,7.43
2018-01-12T11:38:11.201Z,7.45
2018-01-12T11:40:38.783Z,7.37
2018-01-12T11:43:06.440Z,7.24
2018-01-12T11:45:34.076Z,7.21
2018-01-12T11:48:01.653Z,7.12
2018-01-12T11:50:29.228Z,7.11
2018-01-12T11:52:56.840Z,7.09
2018-01-12T11:55:24.424Z,7.11
2018-01-12T11:57:52.145Z,7.10
2018-01-12T12:00:19.819Z,7.17
2018-01-12T12:02:47.391Z,7.27
2018-01-12T12:05:15.025Z,7.31
2018-01-12T12:07:42.652Z,7.33
2018-01-12T12:10:10.274Z,7.36
2018-01-12T12:12:37.851Z,7.40
2018-01-12T12:15:05.465Z,7.38
2018-01-12T12:17:33.101Z,7.35
2018-01-12T12:20:00.681Z,7.30
2018-01-12T12:22:28.251Z,7.32
2018-01-12T12:24:56.186Z,7.34
2018-01-12T12:27:23.807Z,7.30
2018-01-12T12:29:51.399Z,7.29
2018-01-12T12:32:19.019Z,7.29
2018-01-12T12:34:46.588Z,7.24
2018-01-12T12:37:14.172Z,7.24
2018-01-12T12:39:41.791Z,7.22
2018-01-12T12:42:09.368Z,7.22
2018-01-12T12:44:36.955Z,7.24
2018-01-12T12:47:04.562Z,7.28
2018-01-12T12:49:32.152Z,7.35
2018-01-12T12:51:59.726Z,7.43
2018-01-12T12:54:27.336Z,7.47
2018-01-12T12:56:55.052Z,7.52
2018-01-12T12:59:22.686Z,7.54
2018-01-12T13:01:50.302Z,7.54
2018-01-12T13:04:17.885Z,7.57
2018-01-12T13:06:45.469Z,7.56
2018-01-12T13:09:13.091Z,7.55
2018-01-12T13:11:40.671Z,7.55
2018-01-12T13:14:08.258Z,7.53
2018-01-12T13:16:35.872Z,7.52
2018-01-12T13:19:03.602Z,7.49
2018-01-12T13:21:31.163Z,7.51
2018-01-12T13:23:58.777Z,7.48
2018-01-12T13:26:26.352Z,7.49
2018-01-12T13:28:53.933Z,7.43
2018-01-12T13:31:21.860Z,7.26
2018-01-12T13:33:49.453Z,7.25
2018-01-12T13:36:17.046Z,7.34
2018-01-12T13:38:44.665Z,7.34
2018-01-12T13:41:12.235Z,7.34
2018-01-12T13:43:39.954Z,7.33
2018-01-12T13:46:07.608Z,7.36
2018-01-12T13:48:35.203Z,7.35
2018-01-12T13:51:02.802Z,7.30
2018-01-12T13:53:30.438Z,7.30
2018-01-12T13:55:58.028Z,7.26
2018-01-12T13:58:25.602Z,7.29
2018-01-12T14:00:53.234Z,7.29
2018-01-12T14:03:20.894Z,7.26
2018-01-12T14:05:48.477Z,7.18
2018-01-12T14:08:16.087Z,7.22
2018-01-12T14:10:43.669Z,7.20
2018-01-12T14:13:11.251Z,7.14
2018-01-12T14:15:38.910Z,7.13
2018-01-12T14:18:06.475Z,7.15
2018-01-12T14:20:34.057Z,7.14
2018-01-12T14:23:01.684Z,7.17
2018-01-12T14:25:29.459Z,7.13
2018-01-12T14:27:57.031Z,7.13
2018-01-12T14:30:24.688Z,7.13
2018-01-12T14:32:52.272Z,7.13
2018-01-12T14:35:19.849Z,7.13
2018-01-12T14:37:47.513Z,7.08
2018-01-12T14:40:15.135Z,7.10
2018-01-12T14:42:42.739Z,7.10
2018-01-12T14:45:10.374Z,7.10
2018-01-12T14:47:37.958Z,7.05
2018-01-12T14:50:05.537Z,7.02
2018-01-12T14:52:33.204Z,7.03
2018-01-12T14:55:00.786Z,7.02
2018-01-12T14:57:28.353Z,7.05
2018-01-12T14:59:55.960Z,7.06
2018-01-12T15:02:23.528Z,7.05
2018-01-12T15:04:51.092Z,7.04
2018-01-12T15:07:18.694Z,7.01
2018-01-12T15:09:46.275Z,6.96
2018-01-12T15:12:13.861Z,6.90
2018-01-12T15:14:41.508Z,6.94
2018-01-12T15:17:10.961Z,6.97
2018-01-12T15:19:38.661Z,6.99
2018-01-12T15:22:06.277Z,6.77
2018-01-12T15:24:33.862Z,6.64
2018-01-12T15:27:01.424Z,6.65
2018-01-12T15:29:29.033Z,6.59
2018-01-12T15:31:56.598Z,6.57
2018-01-12T15:34:24.185Z,6.44
2018-01-12T15:36:54.399Z,6.43
2018-01-12T15:39:24.195Z,6.48
2018-01-12T15:41:51.928Z,6.49
2018-01-12T15:44:19.540Z,6.45
2018-01-12T15:46:47.097Z,6.46
2018-01-12T15:49:14.672Z,6.51
2018-01-12T15:51:42.286Z,6.48
2018-01-12T15:54:09.905Z,6.41
2018-01-12T15:56:37.470Z,6.32
2018-01-12T15:59:05.072Z,6.22
2018-01-12T16:01:32.677Z,6.17
2018-01-12T16:04:00.306Z,6.16
2018-01-12T16:06:27.975Z,6.22
2018-01-12T16:08:55.554Z,6.18
2018-01-12T16:11:23.117Z,6.15
2018-01-12T16:13:50.733Z,6.12
2018-01-12T16:16:18.308Z,6.21
2018-01-12T16:18:45.873Z,6.12
2018-01-12T16:21:13.494Z,6.12
2018-01-12T16:23:41.051Z,6.11
2018-01-12T16:26:08.624Z,6.08
2018-01-12T16:28:36.238Z,6.09
2018-01-12T16:31:03.817Z,6.11
2018-01-12T16:33:31.373Z,6.13
2018-01-12T16:35:58.981Z,6.12
2018-01-12T16:38:26.546Z,6.05
2018-01-12T16:40:54.161Z,6.00
2018-01-12T16:43:21.802Z,5.94
2018-01-12T16:45:49.362Z,5.98
2018-01-12T16:48:16.994Z,5.96
2018-01-12T16:50:44.609Z,5.95
2018-01-12T16:53:12.176Z,5.92
2018-01-12T16:55:39.788Z,5.92
2018-01-12T16:58:07.401Z,5.97
2018-01-12T17:00:34.973Z,5.93
2018-01-12T17:03:02.578Z,5.93
2018-01-12T17:05:30.310Z,5.92
2018-01-12T17:07:57.900Z,5.97
2018-01-12T17:10:25.470Z,5.84
2018-01-12T17:12:53.094Z,5.92
2018-01-12T17:15:20.676Z,5.90
2018-01-12T17:17:48.271Z,5.85
2018-01-12T17:20:15.875Z,5.84
2018-01-12T17:22:43.492Z,5.86
2018-01-12T17:25:11.084Z,5.90
2018-01-12T17:27:38.678Z,5.82
2018-01-12T17:30:06.260Z,5.71
2018-01-12T17:32:33.852Z,5.64
2018-01-12T17:35:01.449Z,5.68
2018-01-12T17:37:29.061Z,5.67
2018-01-12T17:39:56.646Z,5.63
2018-01-12T17:42:24.289Z,5.62
2018-01-12T17:44:51.877Z,5.63
2018-01-12T17:47:19.516Z,5.60
2018-01-12T17:49:47.271Z,5.57
2018-01-12T17:52:14.886Z,5.54
2018-01-12T17:54:42.472Z,5.52
2018-01-12T17:57:10.179Z,5.57
2018-01-12T17:59:37.769Z,5.54
2018-01-12T18:02:05.355Z,5.53
2018-01-12T18:04:32.984Z,5.53
2018-01-12T18:07:00.546Z,5.55
2018-01-12T18:09:28.102Z,5.50
2018-01-12T18:11:55.713Z,5.58
2018-01-12T18:14:23.305Z,5.45
2018-01-12T18:16:50.885Z,5.45
2018-01-12T18:19:18.496Z,5.48
2018-01-12T18:21:46.083Z,5.43
2018-01-12T18:24:13.668Z,5.38
2018-01-12T18:26:41.471Z,5.41
2018-01-12T18:29:09.045Z,5.42
2018-01-12T18:31:36.637Z,5.37
2018-01-12T18:34:04.279Z,5.30
2018-01-12T18:36:31.893Z,5.39
2018-01-12T18:38:59.468Z,5.36
2018-01-12T18:41:27.080Z,5.29
2018-01-12T18:43:54.664Z,5.30
2018-01-12T18:46:22.234Z,5.32
2018-01-12T18:48:49.841Z,5.36
2018-01-12T18:51:17.413Z,5.31
2018-01-12T18:53:44.982Z,5.30
2018-01-12T18:56:12.574Z,5.36
2018-01-12T18:58:40.151Z,5.27
2018-01-12T19:01:07.718Z,5.27
2018-01-12T19:03:35.334Z,5.29
2018-01-12T19:06:02.930Z,5.25
2018-01-12T19:08:30.532Z,5.26
2018-01-12T19:10:58.140Z,5.30
2018-01-12T19:13:25.723Z,5.32
2018-01-12T19:15:53.389Z,5.29
2018-01-12T19:18:21.073Z,5.30
2018-01-12T19:20:48.670Z,5.32
2018-01-12T19:23:16.249Z,5.33
2018-01-12T19:25:43.874Z,5.32
2018-01-12T19:28:11.453Z,5.25
2018-01-12T19:30:39.001Z,5.29
2018-01-12T19:33:06.625Z,5.29
2018-01-12T19:35:34.192Z,5.32
2018-01-12T19:38:01.769Z,5.28
2018-01-12T19:40:29.380Z,5.32
2018-01-12T19:42:57.072Z,5.27
2018-01-12T19:45:24.641Z,5.21
2018-01-12T19:47:52.248Z,5.24
2018-01-12T19:50:19.828Z,5.23
2018-01-12T19:52:47.398Z,5.25
2018-01-12T19:55:14.985Z,5.25
2018-01-12T19:57:42.545Z,5.17
2018-01-12T20:00:10.119Z,5.23
2018-01-12T20:02:37.736Z,5.24
2018-01-12T20:05:05.291Z,5.22
2018-01-12T20:07:32.845Z,5.24
2018-01-12T20:10:00.447Z,5.24
2018-01-12T20:12:28.004Z,5.22
2018-01-12T20:14:55.864Z,5.18
2018-01-12T20:17:23.526Z,5.19
2018-01-12T20:19:51.160Z,5.15
2018-01-12T20:22:18.719Z,5.05
2018-01-12T20:24:46.321Z,5.05
2018-01-12T20:27:13.892Z,5.00
2018-01-12T20:29:41.458Z,4.95
2018-01-12T20:32:09.075Z,4.86
2018-01-12T20:34:36.659Z,4.95
2018-01-12T20:37:04.229Z,4.86
2018-01-12T20:39:31.833Z,4.88
2018-01-12T20:41:59.410Z,4.76
2018-01-12T20:44:26.985Z,4.83
2018-01-12T20:46:54.574Z,4.85
2018-01-12T20:49:22.169Z,4.83
2018-01-12T20:51:49.773Z,4.86
2018-01-12T20:54:17.430Z,4.82
2018-01-12T20:56:45.012Z,4.86
2018-01-12T20:59:12.589Z,4.84
2018-01-12T21:01:40.417Z,4.91
2018-01-12T21:04:07.979Z,4.92
2018-01-12T21:06:35.747Z,4.89
2018-01-12T21:09:03.595Z,4.84
2018-01-12T21:11:31.147Z,4.88
2018-01-12T21:13:58.719Z,4.93
2018-01-12T21:16:26.303Z,4.94
2018-01-12T21:18:53.881Z,4.93
2018-01-12T21:21:21.443Z,4.94
2018-01-12T21:23:49.161Z,4.94
2018-01-12T21:26:16.821Z,5.03
2018-01-12T21:28:44.395Z,4.88
2018-01-12T21:31:12.143Z,4.92
2018-01-12T21:33:39.708Z,4.96
2018-01-12T21:36:07.484Z,4.92
2018-01-12T21:38:35.095Z,4.90
2018-01-12T21:41:02.675Z,4.89
2018-01-12T21:43:30.246Z,4.87
2018-01-12T21:45:57.918Z,4.89
2018-01-12T21:48:26.264Z,4.89
2018-01-12T21:50:53.819Z,4.84
2018-01-12T21:53:21.537Z,4.87
2018-01-12T21:55:49.102Z,4.87
2018-01-12T21:58:16.848Z,4.86
2018-01-12T22:00:44.435Z,4.87
2018-01-12T22:03:12.002Z,4.78
2018-01-12T22:05:39.547Z,4.77
2018-01-12T22:08:07.362Z,4.80
2018-01-12T22:10:35.172Z,4.82
2018-01-12T22:13:02.832Z,4.77
2018-01-12T22:15:30.550Z,4.78
2018-01-12T22:17:58.134Z,4.82
2018-01-12T22:20:25.820Z,4.80
2018-01-12T22:22:53.457Z,4.85
2018-01-12T22:25:21.158Z,4.83
2018-01-12T22:27:48.733Z,4.86
2018-01-12T22:30:16.456Z,4.81
2018-01-12T22:32:44.036Z,4.84
2018-01-12T22:35:11.613Z,4.77
2018-01-12T22:37:39.430Z,4.83
2018-01-12T22:40:07.007Z,4.85
2018-01-12T22:42:34.557Z,4.90
2018-01-12T22:45:02.169Z,4.78
2018-01-12T22:47:29.895Z,4.81
2018-01-12T22:49:57.497Z,4.71
2018-01-12T22:52:25.213Z,4.78
2018-01-12T22:54:52.887Z,4.70
2018-01-12T22:57:20.467Z,4.78
2018-01-12T22:59:48.071Z,4.75
2018-01-12T23:02:15.866Z,4.73
2018-01-12T23:04:43.456Z,4.77
2018-01-12T23:07:11.167Z,4.77
2018-01-12T23:09:38.895Z,4.82
2018-01-12T23:12:06.566Z,4.81
2018-01-12T23:14:34.386Z,4.85
2018-01-12T23:17:01.966Z,4.77
2018-01-12T23:19:29.707Z,4.77
2018-01-12T23:21:57.584Z,4.74
2018-01-12T23:24:25.240Z,4.75
2018-01-12T23:26:52.795Z,4.59
2018-01-12T23:29:20.394Z,4.75
2018-01-12T23:31:47.966Z,4.74
2018-01-12T23:34:15.534Z,4.68
2018-01-12T23:36:43.349Z,4.61
2018-01-12T23:39:11.000Z,4.64
2018-01-12T23:41:38.880Z,4.52
2018-01-12T23:44:06.482Z,4.50
2018-01-12T23:46:34.048Z,4.53
2018-01-12T23:49:01.614Z,4.40
2018-01-12T23:51:29.216Z,4.46
2018-01-12T23:53:56.780Z,4.48
2018-01-12T23:56:24.436Z,4.51
2018-01-12T23:58:52.086Z,4.55
